createdAt,value
2023-04-02T00:00:52.355Z,91
2023-04-02T00:01:44.960Z,91
2023-04-02T00:02:39.002Z,91
2023-04-02T00:03:22.277Z,91
2023-04-02T00:04:24.500Z,91
2023-04-02T00:05:33.976Z,91
2023-04-02T00:06:27.736Z,90
2023-04-02T00:07:56.719Z,90
2023-04-02T00:09:27.806Z,90
2023-04-02T00:10:33.623Z,90
2023-04-02T00:11:28.334Z,90
2023-04-02T00:12:22.184Z,90
2023-04-02T00:15:32.827Z,89
2023-04-02T00:17:07.283Z,89
2023-04-02T00:18:00.410Z,89
2023-04-02T00:18:47.441Z,89
2023-04-02T00:19:30.321Z,89
2023-04-02T00:20:35.753Z,89
2023-04-02T00:21:34.660Z,89
2023-04-02T00:22:29.571Z,89
2023-04-02T00:23:51.655Z,89
2023-04-02T00:24:43.798Z,89
2023-04-02T00:25:34.984Z,89
2023-04-02T00:26:29.510Z,89
2023-04-02T00:27:23.082Z,88
2023-04-02T00:28:31.472Z,88
2023-04-02T00:29:26.110Z,89
2023-04-02T00:31:19.495Z,89
2023-04-02T00:32:35.123Z,89
2023-04-02T00:33:33.566Z,89
2023-04-02T00:34:26.754Z,89
2023-04-02T00:35:39.900Z,89
2023-04-02T00:36:28.578Z,89
2023-04-02T00:37:21.269Z,89
2023-04-02T00:38:51.691Z,90
2023-04-02T00:39:44.761Z,90
2023-04-02T00:40:39.541Z,90
2023-04-02T00:41:30.231Z,90
2023-04-02T00:42:22.081Z,90
2023-04-02T00:43:32.687Z,90
2023-04-02T00:44:25.373Z,90
2023-04-02T00:45:57.272Z,90
2023-04-02T00:47:06.606Z,90
2023-04-02T00:48:35.442Z,90
2023-04-02T00:49:28.500Z,90
2023-04-02T00:52:22.675Z,90
2023-04-02T00:53:52.611Z,90
2023-04-02T00:55:41.277Z,91
2023-04-02T00:57:24.397Z,91
2023-04-02T00:58:33.633Z,91
2023-04-02T01:00:24.962Z,91
2023-04-02T01:18:40.780Z,92
2023-04-02T01:19:47.543Z,92
2023-04-02T01:20:25.608Z,92
2023-04-02T01:22:08.740Z,92
2023-04-02T01:23:54.299Z,92
2023-04-02T01:24:47.290Z,92
2023-04-02T01:25:40.946Z,92
2023-04-02T01:26:33.172Z,92
2023-04-02T01:27:25.081Z,92
2023-04-02T01:28:30.967Z,92
2023-04-02T01:29:30.051Z,92
2023-04-02T01:30:23.153Z,92
2023-04-02T01:31:50.779Z,92
2023-04-02T01:32:44.485Z,92
2023-04-02T01:33:26.621Z,92
2023-04-02T01:34:30.620Z,92
2023-04-02T01:35:23.291Z,92
2023-04-02T01:36:33.784Z,92
2023-04-02T01:37:27.333Z,92
2023-04-02T01:38:20.301Z,92
2023-04-02T01:39:28.982Z,92
2023-04-02T01:40:41.104Z,92
2023-04-02T01:41:34.770Z,92
2023-04-02T01:42:28.090Z,92
2023-04-02T01:43:39.700Z,92
2023-04-02T01:45:24.410Z,92
2023-04-02T01:46:47.575Z,92
2023-04-02T01:47:45.800Z,92
2023-04-02T01:48:57.594Z,92
2023-04-02T01:49:31.135Z,92
2023-04-02T01:50:26.465Z,92
2023-04-02T01:51:37.625Z,92
2023-04-02T01:54:49.166Z,92
2023-04-02T01:55:42.156Z,92
2023-04-02T01:56:29.458Z,92
2023-04-02T01:59:34.772Z,92
2023-04-02T02:00:25.492Z,92
2023-04-02T02:01:21.820Z,92
2023-04-02T02:02:36.656Z,92
2023-04-02T02:03:40.220Z,92
2023-04-02T02:04:32.441Z,92
2023-04-02T02:05:25.348Z,92
2023-04-02T02:07:11.161Z,92
2023-04-02T02:08:23.398Z,92
2023-04-02T02:09:49.801Z,92
2023-04-02T02:11:38.583Z,92
2023-04-02T02:12:28.544Z,92
2023-04-02T02:13:21.436Z,92
2023-04-02T02:14:33.818Z,92
2023-04-02T02:16:20.989Z,92
2023-04-02T02:17:47.810Z,92
2023-04-02T02:19:34.166Z,92
2023-04-02T02:21:38.269Z,92
2023-04-02T02:22:32.311Z,92
2023-04-02T02:23:24.527Z,92
2023-04-02T02:24:30.947Z,92
2023-04-02T02:25:43.524Z,92
2023-04-02T02:26:38.771Z,92
2023-04-02T02:27:30.708Z,92
2023-04-02T02:28:21.978Z,92
2023-04-02T02:29:20.508Z,92
2023-04-02T02:30:28.718Z,92
2023-04-02T02:31:21.396Z,92
2023-04-02T02:32:48.568Z,92
2023-04-02T02:33:41.004Z,92
2023-04-02T02:34:32.986Z,92
2023-04-02T02:35:26.916Z,92
2023-04-02T02:37:32.546Z,92
2023-04-02T02:38:26.954Z,92
2023-04-02T02:39:52.348Z,92
2023-04-02T02:40:45.427Z,92
2023-04-02T02:41:32.653Z,92
2023-04-02T02:43:23.557Z,92
2023-04-02T02:45:11.388Z,92
2023-04-02T02:46:22.606Z,92
2023-04-02T02:48:41.962Z,92
2023-04-02T02:49:35.167Z,92
2023-04-02T02:50:28.208Z,92
2023-04-02T02:51:20.073Z,92
2023-04-02T02:52:28.201Z,92
2023-04-02T02:54:21.462Z,92
2023-04-02T02:55:46.698Z,92
2023-04-02T02:56:39.597Z,92
2023-04-02T02:57:21.382Z,92
2023-04-02T02:58:26.063Z,92
2023-04-02T02:59:37.911Z,92
2023-04-02T03:01:24.500Z,92
2023-04-02T03:02:52.224Z,92
2023-04-02T03:03:26.516Z,92
2023-04-02T03:04:39.405Z,92
2023-04-02T03:06:22.468Z,92
2023-04-02T03:07:38.949Z,92
2023-04-02T03:08:31.184Z,92
2023-04-02T03:09:26.074Z,92
2023-04-02T03:10:46.125Z,92
2023-04-02T03:11:44.057Z,92
2023-04-02T03:12:35.269Z,92
2023-04-02T03:13:25.501Z,92
2023-04-02T03:14:29.365Z,92
2023-04-02T03:15:51.175Z,92
2023-04-02T03:16:34.904Z,92
2023-04-02T03:17:58.685Z,92
2023-04-02T03:18:46.013Z,92
2023-04-02T03:19:43.198Z,92
2023-04-02T03:20:36.937Z,92
2023-04-02T03:21:30.060Z,92
2023-04-02T03:22:56.646Z,92
2023-04-02T03:23:32.018Z,92
2023-04-02T03:24:24.208Z,92
2023-04-02T03:25:48.687Z,92
2023-04-02T03:26:34.985Z,92
2023-04-02T03:27:36.358Z,92
2023-04-02T03:28:28.714Z,92
2023-04-02T03:29:51.406Z,92
2023-04-02T03:30:35.342Z,92
2023-04-02T03:31:24.069Z,92
2023-04-02T03:32:20.443Z,92
2023-04-02T03:33:55.619Z,92
2023-04-02T03:34:44.348Z,92
2023-04-02T03:35:34.479Z,92
2023-04-02T03:36:29.315Z,92
2023-04-02T03:37:37.056Z,92
2023-04-02T03:39:36.048Z,92
2023-04-02T03:40:54.314Z,92
2023-04-02T03:41:47.991Z,92
2023-04-02T03:42:25.686Z,92
2023-04-02T03:43:33.314Z,92
2023-04-02T03:44:25.125Z,92
2023-04-02T03:45:47.000Z,92
2023-04-02T03:46:29.007Z,92
2023-04-02T03:47:21.548Z,92
2023-04-02T03:48:27.518Z,92
2023-04-02T03:49:40.097Z,92
2023-04-02T03:50:32.718Z,92
2023-04-02T03:51:25.382Z,92
2023-04-02T03:52:40.578Z,92
2023-04-02T03:53:32.386Z,92
2023-04-02T03:54:26.287Z,92
2023-04-02T03:55:45.145Z,92
2023-04-02T03:56:43.197Z,92
2023-04-02T03:57:36.355Z,92
2023-04-02T03:58:27.646Z,92
2023-04-02T03:59:24.919Z,92
2023-04-02T04:00:38.143Z,92
2023-04-02T04:01:30.411Z,92
2023-04-02T04:02:25.031Z,92
2023-04-02T04:03:47.754Z,92
2023-04-02T04:04:40.448Z,92
2023-04-02T04:05:28.339Z,91
2023-04-02T04:07:41.492Z,91
2023-04-02T04:08:35.997Z,91
2023-04-02T04:09:27.849Z,91
2023-04-02T04:10:20.130Z,91
2023-04-02T04:11:35.295Z,91
2023-04-02T04:12:39.457Z,91
2023-04-02T04:13:30.837Z,91
2023-04-02T04:14:23.131Z,91
2023-04-02T04:15:38.519Z,91
2023-04-02T04:16:24.582Z,91
2023-04-02T04:17:24.880Z,91
2023-04-02T04:18:47.735Z,91
2023-04-02T04:19:41.650Z,91
2023-04-02T04:20:34.949Z,91
2023-04-02T04:22:30.161Z,91
2023-04-02T04:24:31.026Z,92
2023-04-02T04:25:23.319Z,92
2023-04-02T04:26:45.743Z,92
2023-04-02T04:27:24.032Z,92
2023-04-02T04:28:30.050Z,92
2023-04-02T04:29:22.191Z,92
2023-04-02T04:31:33.986Z,92
2023-04-02T04:32:25.585Z,92
2023-04-02T04:33:27.940Z,92
2023-04-02T04:34:41.205Z,92
2023-04-02T04:36:28.642Z,92
2023-04-02T04:37:19.789Z,92
2023-04-02T04:38:37.662Z,92
2023-04-02T04:39:32.087Z,92
2023-04-02T04:40:23.403Z,92
2023-04-02T04:41:46.496Z,92
2023-04-02T04:42:39.638Z,92
2023-04-02T04:43:30.496Z,92
2023-04-02T04:46:34.114Z,92
2023-04-02T04:47:28.726Z,92
2023-04-02T04:48:20.249Z,92
2023-04-02T04:49:43.719Z,92
2023-04-02T04:50:30.128Z,92
2023-04-02T04:52:22.032Z,92
2023-04-02T04:53:40.758Z,92
2023-04-02T04:54:33.979Z,92
2023-04-02T04:55:21.904Z,92
2023-04-02T04:56:35.115Z,92
2023-04-02T04:57:38.587Z,92
2023-04-02T04:58:33.472Z,92
2023-04-02T04:59:26.935Z,92
2023-04-02T05:00:42.718Z,92
2023-04-02T05:01:25.701Z,92
2023-04-02T05:02:28.572Z,92
2023-04-02T05:03:21.333Z,92
2023-04-02T05:05:39.408Z,92
2023-04-02T05:06:30.088Z,92
2023-04-02T05:07:22.192Z,92
2023-04-02T05:08:39.941Z,92
2023-04-02T05:09:32.724Z,92
2023-04-02T05:10:25.609Z,92
2023-04-02T05:11:48.280Z,92
2023-04-02T05:12:24.608Z,92
2023-04-02T05:13:39.793Z,92
2023-04-02T05:14:27.461Z,92
2023-04-02T05:15:43.750Z,92
2023-04-02T05:16:38.203Z,92
2023-04-02T05:17:29.842Z,92
2023-04-02T05:18:22.730Z,92
2023-04-02T05:19:41.408Z,92
2023-04-02T05:20:39.301Z,92
2023-04-02T05:21:31.599Z,92
2023-04-02T05:22:22.516Z,92
2023-04-02T05:23:22.223Z,92
2023-04-02T05:24:34.306Z,92
2023-04-02T05:25:27.018Z,92
2023-04-02T05:26:48.596Z,92
2023-04-02T05:29:00.673Z,92
2023-04-02T05:29:26.987Z,92
2023-04-02T05:30:20.231Z,92
2023-04-02T05:31:39.183Z,92
2023-04-02T05:32:33.149Z,92
2023-04-02T05:33:24.508Z,92
2023-04-02T05:34:45.955Z,92
2023-04-02T05:35:31.245Z,92
2023-04-02T05:36:30.583Z,92
2023-04-02T05:37:25.581Z,92
2023-04-02T05:38:44.435Z,92
2023-04-02T05:39:37.725Z,92
2023-04-02T05:40:23.224Z,92
2023-04-02T05:41:21.752Z,92
2023-04-02T05:42:41.886Z,92
2023-04-02T05:43:38.718Z,92
2023-04-02T05:44:30.529Z,92
2023-04-02T05:45:20.583Z,92
2023-04-02T05:46:28.424Z,92
2023-04-02T05:47:33.113Z,92
2023-04-02T05:48:27.719Z,92
2023-04-02T05:49:46.572Z,92
2023-04-02T05:50:40.393Z,92
2023-04-02T05:51:31.899Z,92
2023-04-02T05:52:24.751Z,92
2023-04-02T05:53:44.611Z,92
2023-04-02T05:54:58.025Z,92
2023-04-02T05:55:31.438Z,92
2023-04-02T05:56:22.641Z,92
2023-04-02T05:57:39.493Z,92
2023-04-02T05:58:37.298Z,92
2023-04-02T06:00:24.457Z,91
2023-04-02T06:01:43.168Z,91
2023-04-02T06:02:34.828Z,91
2023-04-02T06:03:28.307Z,91
2023-04-02T06:04:20.291Z,91
2023-04-02T06:06:34.242Z,91
2023-04-02T06:07:25.680Z,91
2023-04-02T06:08:20.824Z,91
2023-04-02T06:10:31.032Z,91
2023-04-02T06:11:25.642Z,91
2023-04-02T06:12:44.804Z,91
2023-04-02T06:13:38.421Z,91
2023-04-02T06:14:26.358Z,91
2023-04-02T06:15:23.278Z,91
2023-04-02T06:16:43.073Z,91
2023-04-02T06:17:38.205Z,91
2023-04-02T06:20:32.471Z,91
2023-04-02T06:21:34.463Z,91
2023-04-02T06:22:27.881Z,91
2023-04-02T06:23:21.115Z,91
2023-04-02T06:24:41.050Z,91
2023-04-02T06:25:23.980Z,91
2023-04-02T06:26:25.472Z,91
2023-04-02T06:27:44.748Z,91
2023-04-02T06:28:37.352Z,91
2023-04-02T06:29:30.605Z,91
2023-04-02T06:31:27.390Z,91
2023-04-02T06:32:42.386Z,91
2023-04-02T06:33:31.520Z,91
2023-04-02T06:34:24.451Z,91
2023-04-02T06:35:43.145Z,91
2023-04-02T06:36:20.500Z,91
2023-04-02T06:37:27.947Z,90
2023-04-02T06:38:22.300Z,90
2023-04-02T06:39:41.144Z,89
2023-04-02T06:40:36.096Z,89
2023-04-02T06:41:54.772Z,89
2023-04-02T06:42:19.949Z,88
2023-04-02T06:43:39.534Z,88
2023-04-02T06:44:31.559Z,89
2023-04-02T06:45:26.797Z,88
2023-04-02T06:46:46.936Z,89
2023-04-02T06:48:32.895Z,89
2023-04-02T06:49:24.105Z,90
2023-04-02T06:50:43.359Z,90
2023-04-02T06:51:37.969Z,90
2023-04-02T06:52:29.152Z,90
2023-04-02T06:53:21.347Z,89
2023-04-02T06:55:38.571Z,90
2023-04-02T06:56:29.993Z,90
2023-04-02T06:57:21.461Z,89
2023-04-02T06:59:27.866Z,89
2023-04-02T07:00:25.471Z,89
2023-04-02T07:01:47.192Z,89
2023-04-02T07:02:41.452Z,90
2023-04-02T07:03:34.493Z,90
2023-04-02T07:04:25.860Z,90
2023-04-02T07:05:31.486Z,90
2023-04-02T07:06:38.361Z,90
2023-04-02T07:07:31.243Z,90
2023-04-02T07:08:24.275Z,90
2023-04-02T07:09:43.322Z,90
2023-04-02T07:10:25.150Z,90
2023-04-02T07:11:29.834Z,90
2023-04-02T07:12:24.971Z,90
2023-04-02T07:13:40.548Z,90
2023-04-02T07:14:34.904Z,90
2023-04-02T07:15:26.972Z,90
2023-04-02T07:16:20.591Z,90
2023-04-02T07:17:41.169Z,90
2023-04-02T07:18:34.152Z,90
2023-04-02T07:19:28.555Z,90
2023-04-02T07:20:19.839Z,90
2023-04-02T07:21:21.404Z,90
2023-04-02T07:22:33.108Z,90
2023-04-02T07:23:25.320Z,89
2023-04-02T07:24:45.628Z,89
2023-04-02T07:25:40.154Z,90
2023-04-02T07:26:31.226Z,90
2023-04-02T07:27:25.272Z,89
2023-04-02T07:28:42.626Z,89
2023-04-02T07:30:29.003Z,90
2023-04-02T07:31:20.755Z,89
2023-04-02T07:32:43.840Z,89
2023-04-02T07:33:30.143Z,89
2023-04-02T07:34:29.711Z,88
2023-04-02T07:35:22.610Z,88
2023-04-02T07:37:10.641Z,88
2023-04-02T07:38:24.806Z,87
2023-04-02T07:39:39.491Z,86
2023-04-02T07:40:39.122Z,87
2023-04-02T07:41:34.070Z,87
2023-04-02T07:42:27.170Z,87
2023-04-02T07:43:43.169Z,86
2023-04-02T07:44:27.075Z,86
2023-04-02T07:45:29.243Z,87
2023-04-02T07:46:23.546Z,87
2023-04-02T07:47:44.924Z,86
2023-04-02T07:48:37.895Z,86
2023-04-02T07:49:29.774Z,87
2023-04-02T07:50:23.115Z,86
2023-04-02T07:51:39.536Z,87
2023-04-02T07:52:32.833Z,87
2023-04-02T07:53:25.499Z,87
2023-04-02T07:54:49.517Z,87
2023-04-02T07:55:27.279Z,86
2023-04-02T07:56:34.489Z,86
2023-04-02T07:57:28.487Z,85
2023-04-02T07:58:21.288Z,86
2023-04-02T07:59:40.887Z,86
2023-04-02T08:00:29.648Z,86
2023-04-02T08:01:22.445Z,85
2023-04-02T08:02:44.123Z,86
2023-04-02T08:03:40.207Z,86
2023-04-02T08:04:56.043Z,86
2023-04-02T08:05:24.204Z,86
2023-04-02T08:06:21.607Z,86
2023-04-02T08:07:34.512Z,86
2023-04-02T08:08:26.456Z,86
2023-04-02T08:11:35.757Z,86
2023-04-02T08:12:28.561Z,85
2023-04-02T08:13:21.044Z,85
2023-04-02T08:14:38.451Z,85
2023-04-02T08:15:32.743Z,85
2023-04-02T08:16:23.870Z,86
2023-04-02T08:17:48.949Z,85
2023-04-02T08:18:42.570Z,86
2023-04-02T08:19:41.546Z,85
2023-04-02T08:20:25.661Z,85
2023-04-02T08:21:43.304Z,85
2023-04-02T08:22:36.774Z,85
2023-04-02T08:23:24.106Z,85
2023-04-02T08:24:21.007Z,85
2023-04-02T08:25:43.770Z,85
2023-04-02T08:27:04.389Z,85
2023-04-02T08:27:29.708Z,85
2023-04-02T08:28:25.017Z,85
2023-04-02T08:29:28.243Z,85
2023-04-02T08:30:31.510Z,85
2023-04-02T08:31:25.781Z,85
2023-04-02T08:32:49.417Z,85
2023-04-02T08:33:42.558Z,85
2023-04-02T08:34:21.686Z,86
2023-04-02T08:35:28.397Z,86
2023-04-02T08:37:35.364Z,86
2023-04-02T08:38:28.741Z,85
2023-04-02T08:39:21.718Z,85
2023-04-02T08:40:26.509Z,85
2023-04-02T08:42:02.282Z,85
2023-04-02T08:43:26.010Z,85
2023-04-02T08:44:41.218Z,86
2023-04-02T08:45:32.336Z,85
2023-04-02T08:46:27.941Z,86
2023-04-02T08:47:45.102Z,85
2023-04-02T08:48:44.593Z,85
2023-04-02T08:49:28.854Z,85
2023-04-02T08:50:29.950Z,85
2023-04-02T08:51:22.354Z,85
2023-04-02T08:52:36.506Z,85
2023-04-02T08:53:22.106Z,85
2023-04-02T08:54:26.053Z,85
2023-04-02T08:55:45.997Z,85
2023-04-02T08:56:30.225Z,84
2023-04-02T08:57:27.792Z,85
2023-04-02T08:58:25.624Z,84
2023-04-02T08:59:40.514Z,85
2023-04-02T09:00:26.648Z,84
2023-04-02T09:01:26.303Z,84
2023-04-02T09:02:19.533Z,83
2023-04-02T09:03:34.425Z,84
2023-04-02T09:04:20.070Z,84
2023-04-02T09:05:31.079Z,84
2023-04-02T09:06:24.572Z,85
2023-04-02T09:08:16.070Z,85
2023-04-02T09:09:25.125Z,85
2023-04-02T09:10:39.205Z,84
2023-04-02T09:11:23.087Z,84
2023-04-02T09:12:34.285Z,84
2023-04-02T09:14:23.080Z,85
2023-04-02T09:15:35.458Z,84
2023-04-02T09:16:27.834Z,84
2023-04-02T09:17:21.389Z,84
2023-04-02T09:18:27.835Z,84
2023-04-02T09:19:21.379Z,84
2023-04-02T09:20:32.703Z,84
2023-04-02T09:21:25.374Z,84
2023-04-02T09:22:21.927Z,84
2023-04-02T09:23:33.579Z,83
2023-04-02T09:24:25.121Z,84
2023-04-02T09:25:28.848Z,84
2023-04-02T09:26:43.609Z,85
2023-04-02T09:27:38.276Z,84
2023-04-02T09:28:30.041Z,84
2023-04-02T09:29:24.248Z,84
2023-04-02T09:30:35.795Z,84
2023-04-02T09:31:32.279Z,83
2023-04-02T09:32:22.904Z,84
2023-04-02T09:33:48.781Z,83
2023-04-02T09:34:41.097Z,83
2023-04-02T09:35:33.837Z,84
2023-04-02T09:36:29.335Z,83
2023-04-02T09:37:36.097Z,83
2023-04-02T09:38:33.983Z,83
2023-04-02T09:39:25.518Z,83
2023-04-02T09:40:22.987Z,81
2023-04-02T09:41:50.242Z,82
2023-04-02T09:42:29.890Z,83
2023-04-02T09:43:31.863Z,83
2023-04-02T09:44:22.953Z,83
2023-04-02T09:45:40.639Z,83
2023-04-02T09:46:31.513Z,82
2023-04-02T09:47:25.202Z,82
2023-04-02T09:48:34.482Z,82
2023-04-02T09:49:42.665Z,82
2023-04-02T09:50:35.368Z,82
2023-04-02T09:51:22.970Z,82
2023-04-02T09:52:20.721Z,82
2023-04-02T09:53:24.967Z,83
2023-04-02T09:54:28.082Z,82
2023-04-02T09:55:19.648Z,80
2023-04-02T09:56:46.598Z,82
2023-04-02T09:57:37.398Z,82
2023-04-02T09:58:23.276Z,82
2023-04-02T09:59:25.266Z,82
2023-04-02T10:00:39.234Z,80
2023-04-02T10:01:31.481Z,82
2023-04-02T10:02:24.500Z,82
2023-04-02T10:03:53.118Z,82
2023-04-02T10:04:22.634Z,82
2023-04-02T10:05:40.113Z,81
2023-04-02T10:06:30.703Z,82
2023-04-02T10:07:22.435Z,82
2023-04-02T10:08:36.846Z,82
2023-04-02T10:09:21.232Z,82
2023-04-02T10:10:20.234Z,82
2023-04-02T10:11:50.866Z,81
2023-04-02T10:12:30.896Z,81
2023-04-02T10:13:35.007Z,82
2023-04-02T10:14:26.129Z,82
2023-04-02T10:15:38.676Z,81
2023-04-02T10:16:26.491Z,81
2023-04-02T10:17:24.363Z,82
2023-04-02T10:18:44.705Z,81
2023-04-02T10:19:33.284Z,80
2023-04-02T10:20:48.606Z,81
2023-04-02T10:21:25.618Z,82
2023-04-02T10:22:24.603Z,82
2023-04-02T10:23:26.931Z,82
2023-04-02T10:24:30.406Z,81
2023-04-02T10:25:21.779Z,82
2023-04-02T10:26:38.245Z,82
2023-04-02T10:27:22.325Z,82
2023-04-02T10:28:35.633Z,82
2023-04-02T10:29:28.333Z,82
2023-04-02T10:30:21.231Z,82
2023-04-02T10:31:32.966Z,82
2023-04-02T10:32:21.603Z,82
2023-04-02T10:33:34.896Z,82
2023-04-02T10:34:24.866Z,82
2023-04-02T10:35:40.282Z,82
2023-04-02T10:36:33.531Z,82
2023-04-02T10:37:24.274Z,82
2023-04-02T10:39:29.200Z,82
2023-04-02T10:40:23.937Z,82
2023-04-02T10:41:29.890Z,81
2023-04-02T10:42:44.521Z,82
2023-04-02T10:44:32.895Z,82
2023-04-02T10:45:24.806Z,83
2023-04-02T10:46:33.645Z,82
2023-04-02T10:47:26.609Z,82
2023-04-02T10:48:20.280Z,82
2023-04-02T10:49:22.814Z,82
2023-04-02T10:50:40.536Z,83
2023-04-02T10:51:33.475Z,79
2023-04-02T10:53:39.467Z,81
2023-04-02T10:54:30.689Z,83
2023-04-02T10:55:25.900Z,82
2023-04-02T10:56:22.390Z,82
2023-04-02T10:57:45.102Z,82
2023-04-02T10:58:39.242Z,83
2023-04-02T10:59:30.960Z,83
2023-04-02T11:00:23.005Z,81
2023-04-02T11:01:35.922Z,83
2023-04-02T11:02:27.826Z,83
2023-04-02T11:03:22.106Z,83
2023-04-02T11:04:49.098Z,83
2023-04-02T11:05:43.117Z,82
2023-04-02T11:06:26.136Z,82
2023-04-02T11:07:27.349Z,82
2023-04-02T11:08:20.084Z,83
2023-04-02T11:09:31.240Z,83
2023-04-02T11:10:26.995Z,81
2023-04-02T11:11:53.540Z,83
2023-04-02T11:12:32.421Z,83
2023-04-02T11:14:23.671Z,83
2023-04-02T11:15:24.002Z,83
2023-04-02T11:16:38.766Z,82
2023-04-02T11:17:22.407Z,83
2023-04-02T11:18:21.192Z,82
2023-04-02T11:19:52.367Z,83
2023-04-02T11:20:43.576Z,84
2023-04-02T11:21:26.640Z,84
2023-04-02T11:22:28.088Z,84
2023-04-02T11:24:33.203Z,83
2023-04-02T11:25:19.941Z,83
2023-04-02T11:26:55.253Z,83
2023-04-02T11:27:42.246Z,83
2023-04-02T11:28:28.130Z,83
2023-04-02T11:29:34.533Z,84
2023-04-02T11:30:28.040Z,83
2023-04-02T11:31:37.871Z,83
2023-04-02T11:32:23.475Z,83
2023-04-02T11:33:30.073Z,84
2023-04-02T11:34:23.812Z,84
2023-04-02T11:36:38.480Z,83
2023-04-02T11:37:31.056Z,84
2023-04-02T11:38:22.875Z,83
2023-04-02T11:39:35.122Z,82
2023-04-02T11:40:28.654Z,83
2023-04-02T11:41:19.542Z,84
2023-04-02T11:42:34.056Z,81
2023-04-02T11:43:21.987Z,83
2023-04-02T11:44:36.833Z,83
2023-04-02T11:45:22.903Z,83
2023-04-02T11:46:21.695Z,83
2023-04-02T11:47:30.490Z,83
2023-04-02T11:48:24.545Z,82
2023-04-02T11:50:23.866Z,82
2023-04-02T11:51:27.480Z,82
2023-04-02T11:52:33.194Z,81
2023-04-02T11:53:25.633Z,82
2023-04-02T11:54:35.316Z,82
2023-04-02T11:55:27.545Z,82
2023-04-02T11:56:20.328Z,80
2023-04-02T11:57:27.079Z,81
2023-04-02T11:58:45.226Z,81
2023-04-02T12:00:30.566Z,82
2023-04-02T12:01:22.017Z,82
2023-04-02T12:02:22.922Z,83
2023-04-02T12:03:24.906Z,82
2023-04-02T12:04:30.263Z,83
2023-04-02T12:05:47.969Z,81
2023-04-02T12:06:41.720Z,82
2023-04-02T12:07:32.243Z,83
2023-04-02T12:10:28.500Z,83
2023-04-02T12:11:23.103Z,82
2023-04-02T12:12:19.845Z,83
2023-04-02T12:13:19.751Z,82
2023-04-02T12:14:35.430Z,83
2023-04-02T12:15:30.775Z,83
2023-04-02T12:17:34.051Z,83
2023-04-02T12:18:25.313Z,83
2023-04-02T12:19:25.667Z,83
2023-04-02T12:20:40.808Z,83
2023-04-02T12:21:42.551Z,83
2023-04-02T12:22:35.963Z,83
2023-04-02T12:23:26.870Z,83
2023-04-02T12:24:20.263Z,83
2023-04-02T12:25:30.037Z,83
2023-04-02T12:26:23.084Z,83
2023-04-02T12:27:54.332Z,83
2023-04-02T12:28:48.560Z,83
2023-04-02T12:29:35.575Z,82
2023-04-02T12:30:23.544Z,82
2023-04-02T12:31:24.486Z,82
2023-04-02T12:32:33.645Z,82
2023-04-02T12:34:19.625Z,83
2023-04-02T12:35:51.403Z,82
2023-04-02T12:36:28.080Z,83
2023-04-02T12:37:23.856Z,82
2023-04-02T12:38:28.597Z,82
2023-04-02T12:39:24.672Z,83
2023-04-02T12:40:32.363Z,81
2023-04-02T12:41:23.639Z,82
2023-04-02T12:42:33.182Z,82
2023-04-02T12:43:41.707Z,82
2023-04-02T12:44:28.758Z,83
2023-04-02T12:45:33.788Z,82
2023-04-02T12:46:25.877Z,82
2023-04-02T12:47:23.537Z,82
2023-04-02T12:48:22.049Z,82
2023-04-02T12:49:20.736Z,82
2023-04-02T12:50:44.887Z,82
2023-04-02T12:51:31.895Z,82
2023-04-02T12:52:37.403Z,82
2023-04-02T12:53:31.513Z,82
2023-04-02T12:54:24.719Z,82
2023-04-02T12:55:25.126Z,82
2023-04-02T12:56:24.080Z,82
2023-04-02T12:57:47.816Z,81
2023-04-02T12:58:23.011Z,81
2023-04-02T12:59:20.651Z,82
2023-04-02T13:00:36.954Z,82
2023-04-02T13:01:28.470Z,80
2023-04-02T13:02:20.030Z,82
2023-04-02T13:03:29.177Z,81
2023-04-02T13:04:22.235Z,82
2023-04-02T13:05:40.441Z,81
2023-04-02T13:06:24.865Z,82
2023-04-02T13:07:39.125Z,82
2023-04-02T13:08:33.099Z,82
2023-04-02T13:09:27.413Z,80
2023-04-02T13:10:31.989Z,82
2023-04-02T13:11:25.555Z,82
2023-04-02T13:12:38.859Z,82
2023-04-02T13:13:25.981Z,82
2023-04-02T13:14:43.922Z,82
2023-04-02T13:15:24.145Z,82
2023-04-02T13:16:30.464Z,82
2023-04-02T13:17:23.003Z,81
2023-04-02T13:18:29.575Z,81
2023-04-02T13:19:23.133Z,81
2023-04-02T13:20:29.410Z,81
2023-04-02T13:21:29.708Z,81
2023-04-02T13:22:43.029Z,80
2023-04-02T13:23:33.537Z,81
2023-04-02T13:26:20.428Z,81
2023-04-02T13:27:20.858Z,80
2023-04-02T13:28:47.627Z,81
2023-04-02T13:29:45.420Z,81
2023-04-02T13:30:41.760Z,82
2023-04-02T13:31:30.049Z,81
2023-04-02T13:32:26.688Z,81
2023-04-02T13:33:30.533Z,80
2023-04-02T13:34:24.571Z,80
2023-04-02T13:35:22.922Z,80
2023-04-02T13:36:50.190Z,79
2023-04-02T13:38:31.165Z,81
2023-04-02T13:39:26.777Z,78
2023-04-02T13:40:20.016Z,80
2023-04-02T13:41:27.046Z,80
2023-04-02T13:42:20.495Z,78
2023-04-02T13:43:53.096Z,78
2023-04-02T13:45:34.444Z,80
2023-04-02T13:46:21.180Z,80
2023-04-02T13:47:24.985Z,80
2023-04-02T13:48:31.765Z,80
2023-04-02T13:49:28.183Z,80
2023-04-02T13:50:41.097Z,81
2023-04-02T13:51:50.755Z,81
2023-04-02T13:52:39.031Z,81
2023-04-02T13:53:23.343Z,82
2023-04-02T13:54:27.976Z,81
2023-04-02T13:55:23.558Z,82
2023-04-02T13:56:31.389Z,82
2023-04-02T13:58:54.500Z,82
2023-04-02T13:59:40.638Z,82
2023-04-02T14:00:27.894Z,82
2023-04-02T14:01:32.631Z,82
2023-04-02T14:02:27.473Z,82
2023-04-02T14:03:34.049Z,82
2023-04-02T14:04:21.932Z,82
2023-04-02T14:05:59.311Z,82
2023-04-02T14:06:30.360Z,82
2023-04-02T14:07:28.936Z,82
2023-04-02T14:08:37.497Z,83
2023-04-02T14:09:31.867Z,82
2023-04-02T14:10:23.632Z,83
2023-04-02T14:11:20.960Z,83
2023-04-02T14:12:22.231Z,82
2023-04-02T14:13:48.358Z,82
2023-04-02T14:14:33.671Z,82
2023-04-02T14:15:40.901Z,82
2023-04-02T14:16:35.161Z,82
2023-04-02T14:17:28.245Z,82
2023-04-02T14:18:20.861Z,83
2023-04-02T14:19:26.760Z,83
2023-04-02T14:20:19.965Z,82
2023-04-02T14:21:36.907Z,82
2023-04-02T14:22:22.053Z,82
2023-04-02T14:23:32.723Z,82
2023-04-02T14:24:33.122Z,82
2023-04-02T14:25:25.735Z,83
2023-04-02T14:26:32.001Z,82
2023-04-02T14:27:23.416Z,83
2023-04-02T14:29:25.604Z,83
2023-04-02T14:30:43.527Z,83
2023-04-02T14:31:36.874Z,83
2023-04-02T14:32:29.729Z,83
2023-04-02T14:33:21.121Z,82
2023-04-02T14:34:27.805Z,83
2023-04-02T14:35:20.466Z,82
2023-04-02T14:36:28.807Z,82
2023-04-02T14:37:48.556Z,83
2023-04-02T14:38:41.686Z,83
2023-04-02T14:39:34.504Z,83
2023-04-02T14:40:27.151Z,83
2023-04-02T14:41:31.524Z,83
2023-04-02T14:42:26.057Z,83
2023-04-02T14:43:32.310Z,82
2023-04-02T14:44:52.142Z,83
2023-04-02T14:46:40.365Z,82
2023-04-02T14:47:31.274Z,82
2023-04-02T14:48:22.904Z,82
2023-04-02T14:49:28.315Z,82
2023-04-02T14:51:21.826Z,82
2023-04-02T14:52:44.242Z,82
2023-04-02T14:53:43.991Z,82
2023-04-02T14:54:31.116Z,82
2023-04-02T14:55:26.890Z,82
2023-04-02T14:56:22.005Z,82
2023-04-02T14:57:25.777Z,82
2023-04-02T14:58:23.871Z,81
2023-04-02T14:59:53.626Z,81
2023-04-02T15:00:46.605Z,82
2023-04-02T15:02:26.304Z,81
2023-04-02T15:03:24.466Z,81
2023-04-02T15:04:29.404Z,81
2023-04-02T15:05:21.869Z,81
2023-04-02T15:06:56.350Z,81
2023-04-02T15:07:51.580Z,81
2023-04-02T15:08:32.514Z,81
2023-04-02T15:09:23.470Z,81
2023-04-02T15:10:28.404Z,81
2023-04-02T15:11:22.139Z,81
2023-04-02T15:12:26.172Z,81
2023-04-02T15:14:02.411Z,82
2023-04-02T15:14:40.063Z,81
2023-04-02T15:15:49.030Z,81
2023-04-02T15:16:26.681Z,82
2023-04-02T15:17:32.547Z,82
2023-04-02T15:18:25.284Z,82
2023-04-02T15:19:32.961Z,82
2023-04-02T15:20:23.087Z,82
2023-04-02T15:21:59.067Z,82
2023-04-02T15:23:30.107Z,82
2023-04-02T15:24:20.128Z,81
2023-04-02T15:25:30.890Z,82
2023-04-02T15:26:24.517Z,82
2023-04-02T15:27:25.612Z,82
2023-04-02T15:28:20.220Z,81
2023-04-02T15:29:56.353Z,82
2023-04-02T15:30:49.671Z,81
2023-04-02T15:31:42.311Z,81
2023-04-02T15:33:28.567Z,81
2023-04-02T15:34:20.232Z,82
2023-04-02T15:35:24.767Z,82
2023-04-02T15:36:30.848Z,82
2023-04-02T15:37:45.502Z,82
2023-04-02T15:38:46.052Z,82
2023-04-02T15:39:49.471Z,81
2023-04-02T15:40:33.071Z,82
2023-04-02T15:42:28.270Z,82
2023-04-02T15:43:20.961Z,82
2023-04-02T15:44:58.101Z,82
2023-04-02T15:45:51.278Z,82
2023-04-02T15:46:45.153Z,82
2023-04-02T15:47:37.152Z,82
2023-04-02T15:48:29.673Z,82
2023-04-02T15:50:26.586Z,82
2023-04-02T15:52:19.341Z,82
2023-04-02T15:53:33.593Z,82
2023-04-02T15:54:41.675Z,83